PST,Max TemperatureF,Mean TemperatureF,Min TemperatureF,Max Dew PointF,MeanDew PointF,Min DewpointF,Max Humidity, Mean Humidity, Min Humidity, Max Sea Level PressureIn, Mean Sea Level PressureIn, Min Sea Level PressureIn, Max VisibilityMiles, Mean VisibilityMiles, Min VisibilityMiles, Max Wind SpeedMPH, Mean Wind SpeedMPH, Max Gust SpeedMPH,PrecipitationIn, CloudCover, Events, WindDirDegrees
2013-2-1,53,43,30,35,31,25,79,69,45,30.46,30.36,30.26,10,10,10,15,8,,0.00,0,,3
2013-2-2,48,36,24,35,27,21,86,77,56,30.49,30.40,30.27,10,8,1,8,2,,0.00,0,,56
2013-2-3,46,36,27,35,29,23,89,73,56,30.26,30.19,30.13,10,8,2,26,6,32,0.00,1,,308
2013-2-4,52,44,36,35,33,29,83,68,50,30.13,30.06,29.93,10,10,10,16,7,,0.00,3,Rain,301
2013-2-5,51,40,30,35,31,27,89,77,54,29.93,29.86,29.82,10,8,0,9,3,,0.00,4,Fog,286
2013-2-6,45,36,28,33,30,24,85,74,58,30.06,29.99,29.91,10,10,5,7,4,,0.00,5,Rain,85
2013-2-7,48,40,32,30,26,23,79,61,39,30.09,29.96,29.86,10,10,10,22,8,25,0.00,2,,313
2013-2-8,48,38,28,25,23,20,69,57,41,30.19,30.15,30.09,10,10,10,23,14,30,0.00,0,,317
2013-2-9,46,41,36,28,27,24,67,59,48,30.22,30.13,30.08,10,10,10,33,20,41,0.00,0,,317
2013-2-10,51,38,26,28,25,20,78,66,35,30.30,30.25,30.21,10,10,10,10,3,,0.00,0,,337
2013-2-11,52,39,26,32,28,21,81,63,46,30.22,30.19,30.14,10,10,10,28,11,34,0.00,0,,310
2013-2-12,52,47,42,35,33,29,68,60,50,30.30,30.25,30.20,10,10,10,24,17,31,0.00,3,,298
2013-2-13,51,44,37,34,30,28,73,58,43,30.40,30.29,30.19,10,10,10,33,19,43,0.00,1,,306
2013-2-14,55,45,35,34,31,28,78,62,45,30.52,30.45,30.42,10,10,10,24,14,33,0.00,2,,310
2013-2-15,55,42,28,34,29,23,85,70,45,30.53,30.43,30.26,10,10,9,8,2,,0.00,0,,102
2013-2-16,53,40,26,35,28,21,88,75,45,30.25,30.11,30.04,10,6,0,26,5,37,0.00,3,Fog,330
2013-2-17,48,38,28,27,24,19,70,57,36,30.14,30.11,30.06,10,10,10,23,16,31,0.00,0,,311
2013-2-18,43,34,25,26,23,18,79,67,49,30.07,29.92,29.78,10,10,10,8,4,,0.00,4,,68
2013-2-19,46,34,23,25,22,17,81,64,37,29.94,29.82,29.77,10,10,10,8,3,,0.00,4,,1
2013-2-20,46,34,21,24,21,14,78,62,37,30.03,29.99,29.95,10,10,10,20,5,22,0.00,1,,350
2013-2-21,48,34,21,31,26,16,85,73,46,30.04,30.01,29.99,10,10,8,14,5,,0.00,5,Rain,312
2013-2-22,48,40,32,36,30,23,85,75,58,30.00,29.82,29.65,10,10,2,30,7,38,0.05,6,Rain-Snow,320
2013-2-23,46,38,30,30,27,23,75,64,46,30.29,30.06,29.84,10,10,10,30,16,37,0.00,1,,310
2013-2-24,46,40,33,28,26,24,73,62,48,30.30,30.22,30.01,10,10,10,17,11,23,0.00,4,,308
2013-2-25,48,39,30,32,26,20,85,63,38,30.19,30.01,29.90,10,10,8,30,8,39,0.00,3,Snow,306
2013-2-26,50,42,30,24,22,17,66,49,29,30.30,30.24,30.19,10,10,10,20,11,28,0.00,1,,307
2013-2-27,54,40,25,31,26,18,75,60,37,30.29,30.24,30.19,10,10,10,8,2,,0.00,4,,314
2013-2-28,43,40,37,37,35,30,87,80,70,30.36,30.29,30.24,10,9,4,8,2,,0.22,8,Rain,292